createdAt,value
2018-03-28T02:35:33.986Z,28.83
2018-03-28T02:38:04.255Z,31.02
2018-03-28T02:40:34.220Z,34.33
2018-03-28T02:43:04.233Z,28.85
2018-03-28T02:45:34.341Z,32.17
2018-03-28T02:48:04.510Z,30.75
2018-03-28T02:50:34.801Z,31.27
2018-03-28T02:53:04.802Z,30.92
2018-03-28T02:55:34.776Z,32.00
2018-03-28T02:58:04.870Z,34.10
2018-03-28T03:00:34.816Z,34.85
2018-03-28T03:03:04.781Z,33.13
2018-03-28T03:05:34.777Z,33.22
2018-03-28T03:08:04.841Z,27.90
2018-03-28T03:10:34.832Z,30.70
2018-03-28T03:13:04.922Z,31.45
2018-03-28T03:15:34.940Z,28.15
2018-03-28T03:18:05.332Z,30.75
2018-03-28T03:20:35.308Z,31.02
2018-03-28T03:23:05.309Z,31.35
2018-03-28T03:25:35.610Z,27.52
2018-03-28T03:28:05.625Z,28.27
2018-03-28T03:30:35.760Z,33.63
2018-03-28T03:33:05.759Z,28.75
2018-03-28T03:35:36.251Z,30.08
2018-03-28T03:38:06.270Z,32.05
2018-03-28T03:40:36.373Z,29.30
2018-03-28T03:43:06.711Z,29.85
2018-03-28T03:45:36.814Z,29.40
2018-03-28T03:50:40.807Z,31.62
2018-03-28T03:53:10.931Z,34.30
2018-03-28T03:55:41.043Z,34.45
2018-03-28T03:58:11.122Z,34.08
2018-03-28T04:00:41.310Z,33.20
2018-03-28T04:03:15.049Z,31.62
2018-03-28T04:05:46.696Z,35.20
2018-03-28T04:08:17.997Z,34.78
2018-03-28T04:10:48.442Z,32.65
2018-03-28T04:13:18.423Z,35.03
2018-03-28T04:15:48.501Z,34.05
2018-03-28T04:18:18.542Z,39.25
2018-03-28T04:20:48.685Z,30.42
2018-03-28T04:23:18.790Z,28.80
2018-03-28T04:25:48.975Z,32.85
2018-03-28T04:28:19.028Z,35.20
2018-03-28T04:30:49.156Z,29.95
2018-03-28T04:33:20.498Z,35.67
2018-03-28T04:35:50.661Z,31.80
2018-03-28T04:38:20.660Z,36.22
2018-03-28T04:40:50.665Z,35.30
2018-03-28T04:43:23.577Z,34.58
2018-03-28T04:45:56.906Z,35.72
2018-03-28T04:48:30.340Z,32.55
2018-03-28T04:51:00.429Z,34.05
2018-03-28T04:53:30.343Z,32.67
2018-03-28T04:56:01.018Z,30.37
2018-03-28T04:58:31.163Z,36.78
2018-03-28T05:01:01.952Z,29.67
2018-03-28T05:03:32.025Z,36.88
2018-03-28T05:06:06.570Z,33.10
2018-03-28T11:52:23.657Z,41.63
2018-03-28T11:58:56.009Z,67.20
2018-03-28T12:01:33.778Z,75.45
2018-03-28T12:04:04.006Z,70.68
2018-03-28T12:06:34.850Z,87.88
2018-03-28T12:09:04.737Z,79.30
2018-03-28T12:26:26.172Z,65.93
2018-03-28T12:40:36.371Z,65.35
2018-03-28T12:43:33.787Z,62.13
2018-03-28T12:56:07.095Z,47.70
2018-03-28T13:19:49.458Z,73.97
2018-03-28T13:22:27.080Z,69.83
2018-03-28T13:27:38.150Z,71.80
2018-03-28T13:30:08.813Z,62.30
2018-03-28T13:35:48.910Z,58.90
2018-03-28T13:38:18.821Z,64.73
2018-03-28T13:40:48.475Z,63.33
2018-03-28T13:43:25.769Z,67.80
2018-03-28T13:46:10.301Z,64.20
2018-03-28T13:54:11.195Z,66.53
2018-03-28T13:56:41.800Z,57.93
2018-03-28T14:01:50.231Z,49.67
2018-03-28T14:10:45.713Z,50.43
2018-03-28T14:13:18.188Z,46.70
2018-03-28T14:18:40.890Z,50.10
2018-03-28T14:28:13.335Z,48.13
2018-03-28T14:31:34.451Z,48.73
2018-03-28T14:45:16.740Z,53.05
2018-03-28T14:47:48.676Z,47.97
2018-03-28T14:50:22.701Z,40.97
2018-03-28T14:53:04.711Z,37.60
2018-03-28T14:55:48.927Z,41.00
2018-03-28T15:04:06.645Z,38.75
2018-03-28T15:10:12.834Z,46.15
2018-03-28T15:15:20.475Z,44.35
2018-03-28T15:27:36.443Z,39.03
2018-03-28T15:35:40.633Z,43.90
2018-03-28T15:38:18.216Z,38.63
2018-03-28T15:40:52.904Z,40.25
2018-03-28T15:46:19.163Z,40.08
2018-03-28T15:53:59.414Z,44.63
2018-03-28T15:59:43.213Z,42.88
2018-03-28T16:05:18.500Z,45.15
2018-03-28T16:07:49.707Z,50.78
2018-03-28T16:10:19.704Z,41.65
2018-03-28T16:12:54.468Z,45.90
2018-03-28T16:15:32.326Z,38.72
2018-03-28T16:18:02.771Z,33.65
2018-03-28T16:20:33.302Z,37.70
2018-03-28T16:31:51.086Z,34.20
2018-03-28T16:34:20.954Z,41.53
2018-03-28T16:36:51.024Z,44.60
2018-03-28T16:39:23.084Z,47.20
2018-03-28T16:41:57.082Z,49.85
2018-03-28T16:44:26.994Z,43.92
2018-03-28T16:49:32.634Z,44.42
2018-03-28T16:52:02.682Z,39.63
2018-03-28T16:54:34.345Z,41.50
2018-03-28T16:57:04.466Z,40.95
2018-03-28T16:59:34.110Z,42.58
2018-03-28T17:02:04.019Z,39.42
2018-03-28T17:04:34.209Z,46.40
2018-03-28T17:07:05.626Z,38.42
2018-03-28T17:09:35.601Z,41.45
2018-03-28T17:12:09.080Z,37.50
2018-03-28T17:14:40.487Z,37.88
2018-03-28T17:17:10.605Z,39.53
2018-03-28T17:19:40.598Z,39.55
2018-03-28T17:22:10.827Z,33.95
2018-03-28T17:24:41.178Z,34.08
2018-03-28T17:27:11.869Z,33.65
2018-03-28T17:29:41.852Z,38.65
2018-03-28T17:32:14.074Z,33.13
2018-03-28T17:34:44.199Z,37.05
2018-03-28T17:37:14.124Z,41.35
2018-03-28T17:39:43.822Z,35.45
2018-03-28T17:42:13.956Z,36.00
2018-03-28T17:44:43.958Z,33.25
2018-03-28T17:47:14.200Z,36.92
2018-03-28T17:49:44.267Z,39.95
2018-03-28T17:52:14.234Z,45.33
2018-03-28T17:57:18.241Z,53.05
2018-03-28T17:59:52.025Z,58.78
2018-03-28T18:02:22.149Z,55.67
2018-03-28T18:04:52.068Z,47.13
2018-03-28T18:07:22.180Z,63.17
2018-03-28T18:09:52.461Z,55.63
2018-03-28T18:12:22.436Z,55.05
2018-03-28T18:14:52.554Z,57.58
2018-03-28T18:17:23.061Z,55.58
2018-03-28T18:19:53.816Z,63.60
2018-03-28T18:22:23.661Z,56.30
2018-03-28T18:24:53.540Z,61.47
2018-03-28T18:27:23.370Z,54.35
2018-03-28T18:29:54.093Z,59.08
2018-03-28T18:32:24.736Z,57.15
2018-03-28T18:34:54.593Z,52.67
2018-03-28T18:37:24.659Z,55.30
2018-03-28T18:40:07.107Z,59.97
2018-03-28T18:42:39.006Z,59.58
2018-03-28T18:45:09.004Z,51.25
2018-03-28T18:47:39.238Z,57.45
2018-03-28T18:50:09.235Z,57.65
2018-03-28T18:52:39.291Z,52.03
2018-03-28T18:55:09.522Z,55.65
2018-03-28T18:57:39.691Z,47.03
2018-03-28T19:00:09.624Z,54.10
2018-03-28T19:02:39.654Z,49.70
2018-03-28T19:05:09.527Z,50.70
2018-03-28T19:07:39.423Z,46.05
2018-03-28T19:10:09.275Z,50.83
2018-03-28T19:12:39.112Z,51.60
2018-03-28T19:15:08.980Z,46.67
2018-03-28T19:17:38.833Z,46.55
2018-03-28T19:20:08.684Z,40.03
2018-03-28T19:22:38.557Z,45.15
2018-03-28T19:25:08.400Z,42.35
2018-03-28T19:27:38.271Z,42.88
2018-03-28T19:30:08.240Z,46.45
2018-03-28T19:32:38.085Z,49.60
2018-03-28T19:35:08.023Z,43.83
2018-03-28T19:37:37.896Z,45.12
2018-03-28T19:40:07.740Z,47.75
2018-03-28T19:42:37.704Z,41.58
2018-03-28T19:45:07.606Z,40.65
2018-03-28T19:47:37.468Z,38.22
2018-03-28T19:50:07.381Z,43.13
2018-03-28T19:52:37.242Z,36.65
2018-03-28T19:55:06.612Z,45.35
2018-03-28T19:57:36.458Z,48.58
2018-03-28T20:00:06.426Z,46.85
2018-03-28T20:02:36.272Z,42.40
2018-03-28T20:05:06.941Z,44.28
2018-03-28T20:07:36.812Z,47.58
2018-03-28T20:10:06.649Z,41.67
2018-03-28T20:12:36.766Z,41.88
2018-03-28T20:15:06.865Z,44.63
2018-03-28T20:17:36.757Z,50.05
2018-03-28T20:20:06.658Z,46.88
2018-03-28T20:22:36.571Z,49.85
2018-03-28T20:25:06.630Z,44.65
2018-03-28T20:27:36.485Z,44.28
2018-03-28T20:30:06.439Z,41.25
2018-03-28T20:32:36.375Z,41.63
2018-03-28T20:35:06.285Z,39.83
2018-03-28T20:37:36.480Z,35.53
2018-03-28T20:40:06.586Z,45.78
2018-03-28T20:42:36.477Z,40.42
2018-03-28T20:45:06.322Z,45.50
2018-03-28T20:47:36.176Z,42.47
2018-03-28T20:50:05.893Z,42.95
2018-03-28T20:52:35.794Z,37.95
2018-03-28T20:55:05.854Z,38.70
2018-03-28T20:57:35.386Z,41.42
2018-03-28T21:00:04.872Z,35.63
2018-03-28T21:02:35.228Z,37.15
2018-03-28T21:05:04.967Z,44.42
2018-03-28T21:07:51.353Z,42.58
2018-03-28T21:10:27.628Z,45.85
2018-03-28T21:12:57.910Z,36.70
2018-03-28T21:15:27.803Z,45.38
2018-03-28T21:17:57.985Z,43.03
2018-03-28T21:20:28.076Z,44.60
2018-03-28T21:22:58.592Z,42.85
2018-03-28T21:25:28.761Z,47.42
2018-03-28T21:27:58.816Z,47.65
2018-03-28T21:30:28.381Z,49.00
2018-03-28T21:32:58.410Z,45.38
2018-03-28T21:35:28.440Z,52.35
2018-03-28T21:37:58.328Z,49.38
2018-03-28T21:40:36.505Z,51.90
2018-03-28T21:43:08.705Z,55.67
2018-03-28T21:45:38.788Z,50.65
2018-03-28T21:48:08.604Z,49.22
2018-03-28T21:50:38.716Z,48.35
2018-03-28T21:53:08.682Z,53.22
2018-03-28T21:55:38.651Z,56.60
2018-03-28T21:58:09.077Z,48.05
2018-03-28T22:00:39.041Z,58.53
2018-03-28T22:03:08.913Z,52.55
2018-03-28T22:05:38.964Z,46.88
2018-03-28T22:08:08.841Z,46.45
2018-03-28T22:10:38.612Z,43.25
2018-03-28T22:13:08.551Z,44.72
2018-03-28T22:15:38.494Z,50.58
2018-03-28T22:18:08.493Z,47.72
2018-03-28T22:20:38.371Z,45.70
2018-03-28T22:23:08.311Z,46.40
2018-03-28T22:25:38.194Z,54.85
2018-03-28T22:28:08.264Z,47.53
2018-03-28T22:30:38.158Z,50.78
2018-03-28T22:33:08.077Z,46.65
2018-03-28T22:35:38.183Z,53.95
2018-03-28T22:38:08.268Z,43.75
2018-03-28T22:40:38.174Z,50.33
2018-03-28T22:43:08.169Z,41.13
2018-03-28T22:45:38.192Z,43.70
2018-03-28T22:48:08.353Z,40.05
2018-03-28T22:50:38.293Z,42.17
2018-03-28T22:53:08.229Z,41.92
2018-03-28T22:55:38.306Z,41.25
2018-03-28T22:58:09.228Z,41.05
2018-03-28T23:00:39.161Z,46.65
2018-03-28T23:03:09.081Z,44.97
2018-03-28T23:05:38.996Z,41.50
2018-03-28T23:08:08.976Z,42.30
2018-03-28T23:10:44.503Z,39.60
2018-03-28T23:13:19.975Z,44.97
2018-03-28T23:15:49.880Z,36.78
2018-03-28T23:18:19.840Z,36.28
2018-03-28T23:20:49.800Z,47.20
2018-03-28T23:23:19.709Z,46.88
2018-03-28T23:25:49.644Z,41.95
2018-03-28T23:28:19.610Z,46.63
2018-03-28T23:30:49.622Z,43.28
2018-03-28T23:33:19.548Z,43.97
2018-03-28T23:35:49.436Z,43.67
2018-03-28T23:38:19.327Z,39.47
2018-03-28T23:40:49.243Z,37.28
2018-03-28T23:43:20.046Z,37.67
2018-03-28T23:45:49.991Z,38.55
2018-03-28T23:48:19.971Z,40.22
2018-03-28T23:50:50.201Z,39.58
2018-03-28T23:53:20.197Z,39.03
2018-03-28T23:55:50.218Z,35.38
2018-03-28T23:58:20.149Z,40.83
